Time;durP1;ratioP1;P1;durP2;ratioP2;P2;SDS_P1;SDS_P2;PMS_P1;PMS_P2;Temp;Humidity;BMP_temperature;BMP_pressure;BME280_temperature;BME280_humidity;BME280_pressure;Samples;Min_cycle;Max_cycle;Signal;HPM_P1;HPM_P2
2022/04/11 00:02:15;;;;;;;10.35;7.18;;;;;;;;;;5282000;28;20013;-69
2022/04/11 00:04:46;;;;;;;9.85;7.25;;;;;;;;;;5280884;28;20013;-70
2022/04/11 00:07:17;;;;;;;13.56;7.50;;;;;;;;;;5282152;28;20016;-70
2022/04/11 00:09:48;;;;;;;18.12;7.40;;;;;;;;;;5281496;28;20097;-69
2022/04/11 00:12:19;;;;;;;20.52;9.48;;;;;;;;;;5280943;28;20009;-70
2022/04/11 00:14:50;;;;;;;21.15;8.85;;;;;;;;;;5281424;28;20040;-70
2022/04/11 00:17:22;;;;;;;30.38;9.32;;;;;;;;;;5281267;28;20048;-70
2022/04/11 00:19:53;;;;;;;30.58;9.60;;;;;;;;;;5281325;28;20036;-70
2022/04/11 00:22:24;;;;;;;23.08;8.57;;;;;;;;;;5281286;28;20474;-70
2022/04/11 00:24:55;;;;;;;29.22;9.60;;;;;;;;;;5281593;28;20449;-70
2022/04/11 00:27:26;;;;;;;30.27;9.85;;;;;;;;;;5280536;28;20016;-70
2022/04/11 00:29:57;;;;;;;33.30;9.34;;;;;;;;;;5281883;28;20630;-70
2022/04/11 00:32:28;;;;;;;33.62;9.48;;;;;;;;;;5280413;28;20077;-71
2022/04/11 00:35:02;;;;;;;36.44;10.58;;;;;;;;;;5281425;28;20051;-70
2022/04/11 00:37:34;;;;;;;33.35;9.25;;;;;;;;;;5281147;28;20064;-70
2022/04/11 00:40:05;;;;;;;30.17;9.80;;;;;;;;;;5281172;28;20491;-70
2022/04/11 00:42:37;;;;;;;37.10;10.38;;;;;;;;;;5281048;28;20052;-70
2022/04/11 00:45:08;;;;;;;30.02;9.88;;;;;;;;;;5281423;28;20104;-70
2022/04/11 00:47:40;;;;;;;30.40;9.75;;;;;;;;;;5280733;28;20024;-71
2022/04/11 00:50:11;;;;;;;31.50;9.77;;;;;;;;;;5281525;28;20032;-70
2022/04/11 00:52:45;;;;;;;30.00;10.35;;;;;;;;;;5281042;28;20024;-70
2022/04/11 00:55:23;;;;;;;27.35;8.98;;;;;;;;;;5281166;28;20474;-71
2022/04/11 00:57:54;;;;;;;26.88;8.70;;;;;;;;;;5281444;28;20036;-70
2022/04/11 01:00:25;;;;;;;30.10;9.27;;;;;;;;;;5280206;28;20422;-71
2022/04/11 01:02:56;;;;;;;22.80;8.98;;;;;;;;;;5281289;28;20029;-70
2022/04/11 01:05:28;;;;;;;22.98;8.80;;;;;;;;;;5280936;28;20347;-70
2022/04/11 01:08:04;;;;;;;21.80;8.32;;;;;;;;;;5280877;28;20518;-70
2022/04/11 01:10:36;;;;;;;17.92;7.53;;;;;;;;;;5280814;28;20077;-70
2022/04/11 01:13:07;;;;;;;21.25;9.05;;;;;;;;;;5281044;28;20399;-70
2022/04/11 01:15:38;;;;;;;18.80;7.47;;;;;;;;;;5280132;28;20394;-70
2022/04/11 01:18:09;;;;;;;18.50;7.55;;;;;;;;;;5281325;28;20029;-70
2022/04/11 01:20:40;;;;;;;17.55;8.25;;;;;;;;;;5280382;28;20531;-70
2022/04/11 01:23:12;;;;;;;22.00;8.68;;;;;;;;;;5280702;28;20278;-70
2022/04/11 01:25:48;;;;;;;16.48;7.38;;;;;;;;;;5280582;28;20021;-70
2022/04/11 01:28:20;;;;;;;12.77;7.00;;;;;;;;;;5280885;28;20016;-71
2022/04/11 01:30:52;;;;;;;16.88;7.70;;;;;;;;;;5280517;28;20070;-70
2022/04/11 01:33:25;;;;;;;17.98;7.38;;;;;;;;;;5280801;28;20555;-71
2022/04/11 01:35:57;;;;;;;23.30;7.90;;;;;;;;;;5280263;28;20474;-70
2022/04/11 01:38:28;;;;;;;16.42;7.85;;;;;;;;;;5280510;28;20021;-70
2022/04/11 01:41:00;;;;;;;15.23;8.48;;;;;;;;;;5281103;28;20064;-70
2022/04/11 01:43:31;;;;;;;16.83;8.75;;;;;;;;;;5279574;28;20345;-70
2022/04/11 01:46:02;;;;;;;15.92;7.90;;;;;;;;;;5282869;28;20251;-70
2022/04/11 01:48:33;;;;;;;14.72;8.02;;;;;;;;;;5283795;28;20402;-70
2022/04/11 01:51:05;;;;;;;15.20;8.45;;;;;;;;;;5284003;28;20021;-70
2022/04/11 01:53:36;;;;;;;14.73;7.50;;;;;;;;;;5284315;28;20456;-70
2022/04/11 01:56:07;;;;;;;16.24;8.00;;;;;;;;;;5284016;28;20102;-70
2022/04/11 01:58:38;;;;;;;17.48;8.62;;;;;;;;;;5283022;28;20036;-70
2022/04/11 02:01:09;;;;;;;12.82;7.98;;;;;;;;;;5283903;28;20035;-70
2022/04/11 02:03:41;;;;;;;11.85;7.68;;;;;;;;;;5283724;28;20024;-70
2022/04/11 02:06:12;;;;;;;10.32;7.72;;;;;;;;;;5283474;28;20021;-70
2022/04/11 02:08:43;;;;;;;11.30;8.12;;;;;;;;;;5283610;28;20053;-70
2022/04/11 02:11:14;;;;;;;16.02;8.56;;;;;;;;;;5283087;28;20400;-70
2022/04/11 02:13:45;;;;;;;14.38;8.28;;;;;;;;;;5283034;28;20048;-70
2022/04/11 02:16:17;;;;;;;14.34;7.54;;;;;;;;;;5284409;28;20040;-70
2022/04/11 02:18:48;;;;;;;10.40;7.05;;;;;;;;;;5282972;28;20020;-70
2022/04/11 02:21:19;;;;;;;12.10;7.00;;;;;;;;;;5283937;28;20036;-71
2022/04/11 02:23:50;;;;;;;13.40;7.45;;;;;;;;;;5283749;28;20012;-70
2022/04/11 02:26:22;;;;;;;11.28;7.72;;;;;;;;;;5283144;28;20059;-71
2022/04/11 02:28:53;;;;;;;11.35;7.68;;;;;;;;;;5284065;28;20013;-70
2022/04/11 02:31:24;;;;;;;9.98;7.03;;;;;;;;;;5282913;28;20028;-70
2022/04/11 02:33:55;;;;;;;12.10;7.72;;;;;;;;;;5283035;28;20020;-70
2022/04/11 02:36:26;;;;;;;10.18;7.74;;;;;;;;;;5283144;28;20017;-70
2022/04/11 02:38:57;;;;;;;10.90;7.78;;;;;;;;;;5282812;28;20032;-71
2022/04/11 02:41:29;;;;;;;12.68;8.15;;;;;;;;;;5282946;28;20032;-70
2022/04/11 02:44:00;;;;;;;11.30;7.70;;;;;;;;;;5283810;28;20294;-70
2022/04/11 02:46:31;;;;;;;10.70;6.93;;;;;;;;;;5282246;28;20282;-70
2022/04/11 02:49:02;;;;;;;11.50;7.30;;;;;;;;;;5283588;28;20121;-70
2022/04/11 02:51:33;;;;;;;8.56;7.48;;;;;;;;;;5282859;28;20017;-70
2022/04/11 02:54:07;;;;;;;9.85;6.38;;;;;;;;;;5283067;28;20070;-71
2022/04/11 02:56:39;;;;;;;8.63;6.38;;;;;;;;;;5282602;28;20490;-70
2022/04/11 02:59:10;;;;;;;9.32;6.66;;;;;;;;;;5282960;28;20025;-70
2022/04/11 03:01:41;;;;;;;10.42;7.22;;;;;;;;;;5281902;28;20085;-70
2022/04/11 03:04:12;;;;;;;8.68;7.30;;;;;;;;;;5283089;28;20456;-70
2022/04/11 03:06:43;;;;;;;8.10;7.06;;;;;;;;;;5282470;28;20035;-70
2022/04/11 03:09:14;;;;;;;9.42;7.16;;;;;;;;;;5282317;28;20332;-70
2022/04/11 03:11:45;;;;;;;10.32;7.04;;;;;;;;;;5282343;28;20174;-70
2022/04/11 03:14:17;;;;;;;8.85;6.60;;;;;;;;;;5282038;28;20052;-70
2022/04/11 03:16:48;;;;;;;10.48;6.90;;;;;;;;;;5282462;28;20031;-70
2022/04/11 03:19:20;;;;;;;9.13;6.95;;;;;;;;;;5282424;28;20016;-71
2022/04/11 03:21:51;;;;;;;11.00;7.80;;;;;;;;;;5281794;28;20016;-69
2022/04/11 03:24:22;;;;;;;9.57;7.32;;;;;;;;;;5282106;28;20021;-69
2022/04/11 03:26:53;;;;;;;12.20;7.54;;;;;;;;;;5282464;28;20550;-69
2022/04/11 03:29:24;;;;;;;9.07;7.28;;;;;;;;;;5281469;28;20062;-69
2022/04/11 03:31:56;;;;;;;10.16;7.56;;;;;;;;;;5282644;28;20023;-69
2022/04/11 03:34:27;;;;;;;9.10;7.40;;;;;;;;;;5281456;28;20013;-69
2022/04/11 03:36:58;;;;;;;11.60;8.77;;;;;;;;;;5281933;28;20528;-69
2022/04/11 03:39:29;;;;;;;10.26;8.16;;;;;;;;;;5281740;28;20041;-70
2022/04/11 03:42:00;;;;;;;9.10;8.18;;;;;;;;;;5282311;28;20490;-70
2022/04/11 03:44:31;;;;;;;8.13;7.32;;;;;;;;;;5281194;28;20087;-70
2022/04/11 03:47:03;;;;;;;10.63;7.45;;;;;;;;;;5282272;28;20028;-69
2022/04/11 03:49:34;;;;;;;8.70;6.85;;;;;;;;;;5280771;28;20573;-70
2022/04/11 03:52:06;;;;;;;10.65;7.30;;;;;;;;;;5282333;28;20031;-70
2022/04/11 03:54:37;;;;;;;10.57;7.28;;;;;;;;;;5281542;28;20109;-69
2022/04/11 03:57:08;;;;;;;9.25;6.95;;;;;;;;;;5281766;28;20020;-69
2022/04/11 03:59:39;;;;;;;13.40;7.63;;;;;;;;;;5281468;28;20028;-69
2022/04/11 04:02:10;;;;;;;11.02;8.00;;;;;;;;;;5281835;28;20013;-69
2022/04/11 04:04:42;;;;;;;8.82;7.93;;;;;;;;;;5281115;28;20455;-70
2022/04/11 04:07:13;;;;;;;12.80;9.60;;;;;;;;;;5282084;28;20013;-70
2022/04/11 04:09:44;;;;;;;9.90;8.04;;;;;;;;;;5280676;28;20047;-69
2022/04/11 04:12:19;;;;;;;10.20;8.46;;;;;;;;;;5281350;28;20035;-69
2022/04/11 04:14:50;;;;;;;12.80;8.40;;;;;;;;;;5281598;28;20048;-69
2022/04/11 04:17:22;;;;;;;10.57;9.10;;;;;;;;;;5280980;28;20391;-70
2022/04/11 04:19:54;;;;;;;9.45;8.23;;;;;;;;;;5281656;28;20025;-70
2022/04/11 04:22:25;;;;;;;11.13;8.15;;;;;;;;;;5281378;28;20030;-70
2022/04/11 04:24:56;;;;;;;10.04;8.36;;;;;;;;;;5280962;28;20032;-69
2022/04/11 04:27:27;;;;;;;14.24;8.24;;;;;;;;;;5281267;28;20062;-70
2022/04/11 04:29:59;;;;;;;11.38;8.45;;;;;;;;;;5281815;28;20435;-70
2022/04/11 04:32:30;;;;;;;10.42;8.24;;;;;;;;;;5280558;28;20025;-69
2022/04/11 04:35:02;;;;;;;11.43;8.18;;;;;;;;;;5281597;28;20036;-69
2022/04/11 04:37:33;;;;;;;14.40;8.60;;;;;;;;;;5280803;28;20024;-69
2022/04/11 04:40:04;;;;;;;9.80;8.02;;;;;;;;;;5281180;28;20029;-70
2022/04/11 04:42:36;;;;;;;12.48;9.10;;;;;;;;;;5281059;28;20021;-69
2022/04/11 04:45:07;;;;;;;9.35;8.45;;;;;;;;;;5281716;28;20016;-70
2022/04/11 04:47:39;;;;;;;13.90;8.45;;;;;;;;;;5280180;28;20032;-70
2022/04/11 04:50:10;;;;;;;13.05;8.93;;;;;;;;;;5281702;28;20459;-70
2022/04/11 04:52:41;;;;;;;13.38;8.40;;;;;;;;;;5280040;28;20065;-69
2022/04/11 04:55:12;;;;;;;10.08;8.32;;;;;;;;;;5281316;28;20406;-69
2022/04/11 04:57:43;;;;;;;13.04;9.04;;;;;;;;;;5280721;28;20019;-69
2022/04/11 05:00:15;;;;;;;10.88;7.95;;;;;;;;;;5280461;28;20020;-70
2022/04/11 05:02:46;;;;;;;10.27;8.23;;;;;;;;;;5280497;28;20012;-69
2022/04/11 05:05:17;;;;;;;10.10;8.65;;;;;;;;;;5280827;28;20383;-69
2022/04/11 05:07:48;;;;;;;9.36;8.38;;;;;;;;;;5279814;28;20538;-70
2022/04/11 05:10:19;;;;;;;11.38;8.82;;;;;;;;;;5280811;28;20475;-71
2022/04/11 05:12:51;;;;;;;12.13;8.75;;;;;;;;;;5280348;28;20055;-71
2022/04/11 05:15:23;;;;;;;11.23;8.07;;;;;;;;;;5279907;28;20380;-71
2022/04/11 05:17:55;;;;;;;12.77;8.23;;;;;;;;;;5281007;28;20463;-70
2022/04/11 05:20:26;;;;;;;11.55;7.78;;;;;;;;;;5282475;28;20513;-71
2022/04/11 05:22:57;;;;;;;9.48;8.45;;;;;;;;;;5284220;28;20407;-71
2022/04/11 05:25:28;;;;;;;11.05;8.40;;;;;;;;;;5284446;28;20095;-71
2022/04/11 05:28:00;;;;;;;11.48;8.07;;;;;;;;;;5284176;28;20609;-70
2022/04/11 05:30:35;;;;;;;12.07;8.15;;;;;;;;;;5284222;28;20017;-70
2022/04/11 05:33:07;;;;;;;11.15;8.10;;;;;;;;;;5284483;28;20382;-70
2022/04/11 05:35:38;;;;;;;13.70;7.20;;;;;;;;;;5283208;28;20021;-70
2022/04/11 05:38:09;;;;;;;11.82;7.46;;;;;;;;;;5284467;28;20043;-70
2022/04/11 05:40:40;;;;;;;10.80;7.55;;;;;;;;;;5283645;28;20036;-71
2022/04/11 05:43:13;;;;;;;12.30;7.46;;;;;;;;;;5283987;28;20025;-70
2022/04/11 05:45:44;;;;;;;11.18;7.15;;;;;;;;;;5283769;28;20024;-70
2022/04/11 05:48:15;;;;;;;11.13;6.65;;;;;;;;;;5283845;28;20035;-70
2022/04/11 05:50:46;;;;;;;11.35;6.57;;;;;;;;;;5282744;28;20020;-70
2022/04/11 05:53:18;;;;;;;10.77;6.90;;;;;;;;;;5283962;28;20431;-70
2022/04/11 05:55:49;;;;;;;10.60;7.40;;;;;;;;;;5283482;28;20384;-70
2022/04/11 05:58:20;;;;;;;12.95;7.07;;;;;;;;;;5283184;28;20020;-71
2022/04/11 06:00:51;;;;;;;16.05;7.10;;;;;;;;;;5283711;28;20103;-71
2022/04/11 06:03:22;;;;;;;13.25;6.53;;;;;;;;;;5282601;28;20108;-70
2022/04/11 06:05:53;;;;;;;12.10;6.22;;;;;;;;;;5284106;28;20729;-70
2022/04/11 06:08:25;;;;;;;7.30;6.20;;;;;;;;;;5278206;28;20020;-71
2022/04/11 06:10:56;;;;;;;10.93;5.82;;;;;;;;;;5282667;28;20020;-70
2022/04/11 06:13:27;;;;;;;7.97;5.63;;;;;;;;;;5282760;28;20369;-71
2022/04/11 06:16:01;;;;;;;9.10;5.65;;;;;;;;;;5283966;28;20320;-71
2022/04/11 06:18:32;;;;;;;8.38;5.50;;;;;;;;;;5282055;28;20096;-70
2022/04/11 06:21:04;;;;;;;10.43;5.45;;;;;;;;;;5283408;28;20372;-71
2022/04/11 06:23:35;;;;;;;9.55;4.70;;;;;;;;;;5282223;28;20270;-70
2022/04/11 06:26:06;;;;;;;10.73;5.50;;;;;;;;;;5282999;28;20459;-70
2022/04/11 06:28:41;;;;;;;8.35;5.28;;;;;;;;;;5282689;28;20345;-71
2022/04/11 06:31:14;;;;;;;9.18;4.57;;;;;;;;;;5281745;28;20020;-71
2022/04/11 06:33:45;;;;;;;12.27;4.45;;;;;;;;;;5282370;28;20550;-71
2022/04/11 06:36:16;;;;;;;6.50;4.32;;;;;;;;;;5283096;28;20091;-70
2022/04/11 06:38:47;;;;;;;7.72;3.53;;;;;;;;;;5282268;28;20050;-71
2022/04/11 06:41:19;;;;;;;7.25;3.67;;;;;;;;;;5282732;28;20477;-71
2022/04/11 06:43:50;;;;;;;10.70;3.88;;;;;;;;;;5282820;28;20263;-71
2022/04/11 06:46:21;;;;;;;7.22;3.72;;;;;;;;;;5282078;28;20267;-72
2022/04/11 06:48:52;;;;;;;7.35;3.67;;;;;;;;;;5283474;28;20305;-71
2022/04/11 06:51:23;;;;;;;7.25;3.35;;;;;;;;;;5282453;28;20035;-71
2022/04/11 06:53:54;;;;;;;6.18;3.30;;;;;;;;;;5282567;28;20418;-71
2022/04/11 06:56:26;;;;;;;5.63;3.15;;;;;;;;;;5282462;28;20271;-71
2022/04/11 06:58:57;;;;;;;8.32;2.95;;;;;;;;;;5282788;28;20399;-70
2022/04/11 07:01:28;;;;;;;5.47;3.15;;;;;;;;;;5281653;28;20317;-70
2022/04/11 07:03:59;;;;;;;5.82;2.40;;;;;;;;;;5282996;28;20129;-71
2022/04/11 07:06:30;;;;;;;7.68;2.72;;;;;;;;;;5281277;28;20442;-71
2022/04/11 07:09:02;;;;;;;6.28;3.58;;;;;;;;;;5282653;28;20337;-71
2022/04/11 07:11:33;;;;;;;5.93;2.63;;;;;;;;;;5281854;28;20326;-71
2022/04/11 07:14:05;;;;;;;7.93;3.00;;;;;;;;;;5282152;28;20040;-71
2022/04/11 07:16:36;;;;;;;6.32;2.45;;;;;;;;;;5282183;28;20378;-70
2022/04/11 07:19:07;;;;;;;5.18;2.90;;;;;;;;;;5282275;28;20099;-70
2022/04/11 07:21:38;;;;;;;4.68;2.45;;;;;;;;;;5281394;28;20112;-70
2022/04/11 07:24:10;;;;;;;5.75;2.67;;;;;;;;;;5282416;28;20041;-71
2022/04/11 07:26:41;;;;;;;7.40;2.50;;;;;;;;;;5282099;28;20653;-70
2022/04/11 07:29:12;;;;;;;7.22;2.30;;;;;;;;;;5282281;28;20103;-70
2022/04/11 07:31:43;;;;;;;7.18;2.33;;;;;;;;;;5281774;28;20044;-71
2022/04/11 07:34:15;;;;;;;6.20;2.15;;;;;;;;;;5282135;28;20378;-71
2022/04/11 07:36:46;;;;;;;10.65;2.53;;;;;;;;;;5281287;28;20258;-70
2022/04/11 07:39:18;;;;;;;6.18;1.70;;;;;;;;;;5282231;28;20455;-70
2022/04/11 07:41:50;;;;;;;5.47;1.95;;;;;;;;;;5281707;28;20387;-70
2022/04/11 07:44:21;;;;;;;2.47;1.35;;;;;;;;;;5280777;28;20027;-70
2022/04/11 07:46:52;;;;;;;5.30;1.17;;;;;;;;;;5281952;28;20024;-70
2022/04/11 07:49:24;;;;;;;6.25;2.30;;;;;;;;;;5281186;28;20585;-71
2022/04/11 07:51:55;;;;;;;6.80;1.92;;;;;;;;;;5282397;28;20013;-70
2022/04/11 07:54:26;;;;;;;6.63;1.33;;;;;;;;;;5281221;28;20275;-70
2022/04/11 07:56:57;;;;;;;5.05;1.35;;;;;;;;;;5281646;28;20032;-71
2022/04/11 07:59:28;;;;;;;4.82;1.50;;;;;;;;;;5281178;28;20408;-72
2022/04/11 08:01:59;;;;;;;5.97;1.17;;;;;;;;;;5281796;28;20102;-71
2022/04/11 08:04:32;;;;;;;7.20;1.27;;;;;;;;;;5280813;28;20363;-70
2022/04/11 08:07:03;;;;;;;6.28;1.15;;;;;;;;;;5282148;28;20363;-69
2022/04/11 08:09:34;;;;;;;3.45;0.98;;;;;;;;;;5280433;28;20033;-71
2022/04/11 08:12:06;;;;;;;3.63;1.85;;;;;;;;;;5281941;28;20104;-70
2022/04/11 08:14:37;;;;;;;3.53;1.38;;;;;;;;;;5280763;28;20482;-71
2022/04/11 08:17:08;;;;;;;3.78;1.20;;;;;;;;;;5280580;28;20467;-72
2022/04/11 08:19:39;;;;;;;3.97;1.40;;;;;;;;;;5281260;28;20705;-71
2022/04/11 08:22:10;;;;;;;6.03;1.50;;;;;;;;;;5281316;28;20020;-71
2022/04/11 08:24:42;;;;;;;5.10;1.53;;;;;;;;;;5280615;28;20020;-70
2022/04/11 08:27:13;;;;;;;4.22;1.17;;;;;;;;;;5281632;28;20295;-71
2022/04/11 08:29:44;;;;;;;5.47;1.40;;;;;;;;;;5280608;28;20051;-70
2022/04/11 08:32:17;;;;;;;6.30;1.80;;;;;;;;;;5280260;28;20047;-70
2022/04/11 08:34:48;;;;;;;3.55;1.05;;;;;;;;;;5270699;28;20462;-70
2022/04/11 08:37:19;;;;;;;4.33;1.30;;;;;;;;;;5276424;28;20112;-70
2022/04/11 08:39:51;;;;;;;9.35;1.48;;;;;;;;;;5280493;28;20313;-71
2022/04/11 08:42:23;;;;;;;5.30;1.60;;;;;;;;;;5278820;28;20279;-72
2022/04/11 08:44:55;;;;;;;4.40;1.52;;;;;;;;;;5280643;28;20029;-72
2022/04/11 08:47:26;;;;;;;6.00;1.52;;;;;;;;;;5280223;28;20021;-72
2022/04/11 08:49:58;;;;;;;4.93;1.80;;;;;;;;;;5280967;28;20023;-72
2022/04/11 08:52:30;;;;;;;4.50;1.23;;;;;;;;;;5279813;28;20753;-71
2022/04/11 08:55:02;;;;;;;4.00;1.25;;;;;;;;;;5283659;28;20023;-70
2022/04/11 08:57:37;;;;;;;3.22;0.98;;;;;;;;;;5284782;28;20021;-70
2022/04/11 09:00:09;;;;;;;3.05;1.20;;;;;;;;;;5284807;28;20031;-69
2022/04/11 09:02:41;;;;;;;5.28;0.98;;;;;;;;;;5284950;28;20025;-70
2022/04/11 09:05:19;;;;;;;7.18;1.15;;;;;;;;;;5285361;28;20016;-69
2022/04/11 09:07:50;;;;;;;3.78;0.70;;;;;;;;;;5284638;28;20024;-70
2022/04/11 09:10:24;;;;;;;4.78;0.95;;;;;;;;;;5284346;28;20016;-70
2022/04/11 09:12:57;;;;;;;3.72;0.60;;;;;;;;;;5284606;28;20094;-69
2022/04/11 09:15:28;;;;;;;2.72;0.77;;;;;;;;;;5284465;28;20016;-69
2022/04/11 09:18:00;;;;;;;3.00;0.77;;;;;;;;;;5285185;28;20541;-69
2022/04/11 09:20:31;;;;;;;5.35;0.88;;;;;;;;;;5283804;28;20078;-70
2022/04/11 09:23:16;;;;;;;3.80;0.68;;;;;;;;;;5285246;28;20009;-70
2022/04/11 09:25:47;;;;;;;3.45;0.60;;;;;;;;;;5284448;28;20063;-69
2022/04/11 09:28:19;;;;;;;3.17;0.65;;;;;;;;;;5284305;28;20129;-69
2022/04/11 09:30:50;;;;;;;3.63;0.70;;;;;;;;;;5284831;28;20009;-69
2022/04/11 09:33:21;;;;;;;3.95;0.70;;;;;;;;;;5284169;28;20017;-70
2022/04/11 09:35:52;;;;;;;2.35;0.90;;;;;;;;;;5284651;28;20012;-69
2022/04/11 09:38:24;;;;;;;4.13;0.75;;;;;;;;;;5284316;28;20329;-69
2022/04/11 09:40:56;;;;;;;5.95;0.75;;;;;;;;;;5284196;28;20074;-69
2022/04/11 09:43:28;;;;;;;4.53;0.70;;;;;;;;;;5284242;28;20017;-69
2022/04/11 09:46:01;;;;;;;2.95;0.50;;;;;;;;;;5284663;28;20088;-69
2022/04/11 09:48:35;;;;;;;3.88;0.60;;;;;;;;;;5283683;28;20013;-69
2022/04/11 09:51:10;;;;;;;3.85;0.60;;;;;;;;;;5284858;28;20494;-69
2022/04/11 09:53:43;;;;;;;2.20;0.60;;;;;;;;;;5283839;28;20100;-69
2022/04/11 09:56:16;;;;;;;2.65;0.70;;;;;;;;;;5283759;28;20028;-69
2022/04/11 09:58:47;;;;;;;2.63;0.60;;;;;;;;;;5284180;28;20013;-67
2022/04/11 10:01:19;;;;;;;3.20;0.70;;;;;;;;;;5283954;28;20040;-69
2022/04/11 10:03:50;;;;;;;2.65;0.50;;;;;;;;;;5283677;28;20023;-69
2022/04/11 10:06:21;;;;;;;4.50;1.25;;;;;;;;;;5281203;28;20029;-69
2022/04/11 10:08:52;;;;;;;2.43;0.40;;;;;;;;;;5283561;28;20103;-69
2022/04/11 10:11:23;;;;;;;3.15;0.60;;;;;;;;;;5282741;28;20680;-69
2022/04/11 10:13:55;;;;;;;5.25;0.60;;;;;;;;;;5283592;28;20036;-69
2022/04/11 10:16:26;;;;;;;4.45;0.80;;;;;;;;;;5282838;28;20055;-69
2022/04/11 10:19:01;;;;;;;4.88;0.90;;;;;;;;;;5283936;28;20107;-70
2022/04/11 10:21:33;;;;;;;5.07;0.80;;;;;;;;;;5283372;28;20039;-70
2022/04/11 10:24:06;;;;;;;4.47;0.90;;;;;;;;;;5283462;28;20025;-69
2022/04/11 10:26:45;;;;;;;5.75;0.90;;;;;;;;;;5283430;28;20031;-69
2022/04/11 10:29:32;;;;;;;5.18;1.42;;;;;;;;;;5283725;28;20013;-70
2022/04/11 10:32:14;;;;;;;6.25;0.90;;;;;;;;;;5283275;28;20031;-69
2022/04/11 10:34:46;;;;;;;4.53;0.98;;;;;;;;;;5282545;28;20019;-70
2022/04/11 10:37:18;;;;;;;7.55;0.93;;;;;;;;;;5283369;28;20021;-71
2022/04/11 10:39:50;;;;;;;4.05;0.80;;;;;;;;;;5283136;28;20100;-71
2022/04/11 10:42:22;;;;;;;3.95;0.70;;;;;;;;;;5283019;28;20012;-70
2022/04/11 10:44:56;;;;;;;5.03;0.90;;;;;;;;;;5283120;28;20024;-70
2022/04/11 10:47:30;;;;;;;3.55;0.75;;;;;;;;;;5283239;28;20070;-70
2022/04/11 10:50:01;;;;;;;3.70;1.02;;;;;;;;;;5283411;28;20154;-70
2022/04/11 10:52:41;;;;;;;3.20;0.77;;;;;;;;;;5282511;28;20095;-70
2022/04/11 10:55:17;;;;;;;4.60;0.90;;;;;;;;;;5283558;28;20048;-70
2022/04/11 10:57:50;;;;;;;3.30;1.00;;;;;;;;;;5282583;28;20095;-70
2022/04/11 11:00:22;;;;;;;4.22;1.25;;;;;;;;;;5282214;28;20025;-71
2022/04/11 11:02:54;;;;;;;5.18;1.15;;;;;;;;;;5283179;28;20095;-69
2022/04/11 11:05:26;;;;;;;4.00;0.80;;;;;;;;;;5282452;28;20028;-70
2022/04/11 11:08:10;;;;;;;7.15;1.17;;;;;;;;;;5283320;28;20023;-70
2022/04/11 11:10:41;;;;;;;3.60;1.15;;;;;;;;;;5282311;28;20407;-70
2022/04/11 11:13:32;;;;;;;4.50;1.45;;;;;;;;;;5282437;28;20063;-70
2022/04/11 11:16:03;;;;;;;3.80;1.05;;;;;;;;;;5268502;28;20332;-70
2022/04/11 11:18:50;;;;;;;2.88;0.90;;;;;;;;;;5282005;28;20479;-70
2022/04/11 11:21:48;;;;;;;4.57;1.10;;;;;;;;;;5281498;28;20318;-70
2022/04/11 11:24:19;;;;;;;2.28;0.80;;;;;;;;;;5282208;28;20024;-70
2022/04/11 11:26:53;;;;;;;3.00;1.00;;;;;;;;;;5282051;28;20025;-70
2022/04/11 11:29:32;;;;;;;3.58;1.02;;;;;;;;;;5282077;28;20568;-71
2022/04/11 11:32:07;;;;;;;3.75;0.80;;;;;;;;;;5282285;28;20471;-71
2022/04/11 11:34:39;;;;;;;3.75;1.02;;;;;;;;;;5281078;28;20445;-70
2022/04/11 11:37:12;;;;;;;2.80;0.90;;;;;;;;;;5282597;28;20039;-70
2022/04/11 11:39:45;;;;;;;3.80;0.80;;;;;;;;;;5281619;28;20017;-70
2022/04/11 11:42:17;;;;;;;2.83;0.80;;;;;;;;;;5281960;28;20465;-70
2022/04/11 11:44:49;;;;;;;5.82;0.90;;;;;;;;;;5281584;28;20017;-70
2022/04/11 11:47:29;;;;;;;3.90;0.80;;;;;;;;;;5282260;28;20356;-70
2022/04/11 11:50:01;;;;;;;5.03;0.73;;;;;;;;;;5281729;28;20021;-71
2022/04/11 11:52:33;;;;;;;9.10;0.90;;;;;;;;;;5281345;28;20021;-71
2022/04/11 11:55:04;;;;;;;5.63;0.80;;;;;;;;;;5281875;28;20023;-70
2022/04/11 11:57:36;;;;;;;3.13;0.85;;;;;;;;;;5281586;28;20016;-70
2022/04/11 12:00:08;;;;;;;5.72;1.08;;;;;;;;;;5281789;28;20103;-70
2022/04/11 12:05:32;;;;;;;6.68;1.40;;;;;;;;;;5281860;28;20016;-70
2022/04/11 12:08:08;;;;;;;3.92;0.80;;;;;;;;;;5281860;28;20059;-69
2022/04/11 12:10:40;;;;;;;2.65;0.70;;;;;;;;;;5280804;28;20025;-70
2022/04/11 12:13:20;;;;;;;3.28;0.68;;;;;;;;;;5277603;28;20052;-70
2022/04/11 12:15:51;;;;;;;6.32;0.75;;;;;;;;;;5280006;28;20032;-70
2022/04/11 12:18:22;;;;;;;2.67;0.93;;;;;;;;;;5280940;28;20352;-70
2022/04/11 12:20:53;;;;;;;4.97;1.17;;;;;;;;;;5281112;28;20039;-69
2022/04/11 12:23:25;;;;;;;5.88;1.40;;;;;;;;;;5280746;28;20323;-69
2022/04/11 12:25:56;;;;;;;3.33;1.15;;;;;;;;;;5281567;28;20291;-70
2022/04/11 12:28:28;;;;;;;3.75;1.10;;;;;;;;;;5281063;28;20025;-71
2022/04/11 12:31:02;;;;;;;3.88;1.02;;;;;;;;;;5280731;28;20029;-69
2022/04/11 12:33:37;;;;;;;4.57;1.33;;;;;;;;;;5281297;28;20464;-70
2022/04/11 12:36:11;;;;;;;4.35;0.98;;;;;;;;;;5281530;28;20476;-70
2022/04/11 12:38:43;;;;;;;5.95;1.30;;;;;;;;;;5280504;28;20020;-70
2022/04/11 12:41:27;;;;;;;3.93;1.47;;;;;;;;;;5281526;28;20479;-70
2022/04/11 12:44:15;;;;;;;5.70;1.38;;;;;;;;;;5281211;28;20279;-70
2022/04/11 12:46:55;;;;;;;5.22;2.40;;;;;;;;;;5281116;28;20328;-70
2022/04/11 12:49:45;;;;;;;9.02;2.47;;;;;;;;;;5281112;28;20047;-70
2022/04/11 12:52:20;;;;;;;6.03;2.90;;;;;;;;;;5281236;28;20054;-70
2022/04/11 12:54:52;;;;;;;8.50;4.00;;;;;;;;;;5281266;28;20028;-70
2022/04/11 12:57:27;;;;;;;9.27;4.10;;;;;;;;;;5280748;28;20009;-69
2022/04/11 13:00:18;;;;;;;5.90;3.40;;;;;;;;;;5279353;28;20036;-70
2022/04/11 13:02:52;;;;;;;6.28;3.80;;;;;;;;;;5280223;28;20025;-70
2022/04/11 13:05:26;;;;;;;8.70;4.13;;;;;;;;;;5280079;28;20371;-69
2022/04/11 13:07:59;;;;;;;8.45;3.22;;;;;;;;;;5281230;28;20107;-70
2022/04/11 13:10:30;;;;;;;6.90;3.50;;;;;;;;;;5280525;28;20110;-70
2022/04/11 13:13:03;;;;;;;7.13;3.50;;;;;;;;;;5280303;28;20056;-70
2022/04/11 13:18:24;;;;;;;7.97;3.95;;;;;;;;;;5279746;28;20078;-70
2022/04/11 13:18:26;;;;;;;7.57;3.80;;;;;;;;;;5280305;28;20032;-69
2022/04/11 13:20:57;;;;;;;7.28;3.53;;;;;;;;;;5280452;28;20140;-70
2022/04/11 13:23:28;;;;;;;6.20;3.22;;;;;;;;;;5279602;28;20485;-70
2022/04/11 13:25:59;;;;;;;5.83;3.73;;;;;;;;;;5279924;28;20016;-71
2022/04/11 13:28:31;;;;;;;7.20;4.03;;;;;;;;;;5279898;28;20270;-71
2022/04/11 13:31:02;;;;;;;5.25;2.88;;;;;;;;;;5280520;28;20024;-71
2022/04/11 13:33:33;;;;;;;3.88;2.10;;;;;;;;;;5279772;28;20044;-71
2022/04/11 13:36:04;;;;;;;5.55;2.42;;;;;;;;;;5281114;28;20278;-71
2022/04/11 13:38:35;;;;;;;6.17;2.43;;;;;;;;;;5280274;28;20263;-70
2022/04/11 13:41:06;;;;;;;7.35;1.95;;;;;;;;;;5282267;28;20309;-70
2022/04/11 13:43:38;;;;;;;4.32;1.52;;;;;;;;;;5284235;28;20032;-71
2022/04/11 13:46:09;;;;;;;2.92;1.63;;;;;;;;;;5284754;28;20659;-70
2022/04/11 13:48:40;;;;;;;6.65;2.50;;;;;;;;;;5283429;28;20017;-70
2022/04/11 13:51:11;;;;;;;8.48;2.75;;;;;;;;;;5284852;28;20263;-71
2022/04/11 13:53:42;;;;;;;6.93;3.05;;;;;;;;;;5283877;28;20020;-71
2022/04/11 13:56:14;;;;;;;9.60;3.00;;;;;;;;;;5284334;28;20517;-71
2022/04/11 13:58:45;;;;;;;6.30;2.87;;;;;;;;;;5283870;28;20024;-70
2022/04/11 14:01:16;;;;;;;4.97;2.80;;;;;;;;;;5283957;28;20330;-71
2022/04/11 14:03:48;;;;;;;6.13;3.10;;;;;;;;;;5283876;28;20259;-70
2022/04/11 14:06:19;;;;;;;5.78;2.40;;;;;;;;;;5284175;28;20069;-71
2022/04/11 14:08:50;;;;;;;8.98;2.90;;;;;;;;;;5283706;28;20016;-71
2022/04/11 14:11:21;;;;;;;5.67;1.77;;;;;;;;;;5283705;28;20267;-69
2022/04/11 14:13:53;;;;;;;6.47;1.80;;;;;;;;;;5283829;28;20320;-70
2022/04/11 14:16:24;;;;;;;6.88;2.20;;;;;;;;;;5282904;28;20021;-70
2022/04/11 14:18:55;;;;;;;4.43;2.33;;;;;;;;;;5283465;28;20016;-69
2022/04/11 14:21:26;;;;;;;6.28;2.35;;;;;;;;;;5283335;28;20357;-68
2022/04/11 14:23:57;;;;;;;6.70;1.98;;;;;;;;;;5283600;28;20023;-69
2022/04/11 14:26:29;;;;;;;5.05;2.00;;;;;;;;;;5283087;28;20020;-69
2022/04/11 14:29:00;;;;;;;6.25;2.20;;;;;;;;;;5283746;28;20259;-69
2022/04/11 14:31:31;;;;;;;6.53;2.15;;;;;;;;;;5282998;28;20027;-69
2022/04/11 14:34:02;;;;;;;7.10;2.00;;;;;;;;;;5283775;28;20297;-69
2022/04/11 14:36:34;;;;;;;6.63;1.85;;;;;;;;;;5282650;28;20082;-69
2022/04/11 14:39:05;;;;;;;8.38;1.92;;;;;;;;;;5283865;28;20066;-69
2022/04/11 14:41:36;;;;;;;4.60;1.60;;;;;;;;;;5282697;28;20024;-69
2022/04/11 14:44:08;;;;;;;4.30;2.05;;;;;;;;;;5283290;28;20078;-69
2022/04/11 14:46:39;;;;;;;4.68;1.88;;;;;;;;;;5283088;28;20266;-70
2022/04/11 14:49:10;;;;;;;4.45;2.13;;;;;;;;;;5283472;28;20037;-69
2022/04/11 14:51:41;;;;;;;6.10;1.83;;;;;;;;;;5281980;28;20078;-69
2022/04/11 14:54:12;;;;;;;6.80;1.70;;;;;;;;;;5282843;28;20468;-70
2022/04/11 14:56:43;;;;;;;5.20;1.80;;;;;;;;;;5282750;28;20765;-70
2022/04/11 14:59:15;;;;;;;6.93;1.73;;;;;;;;;;5282599;28;20028;-70
2022/04/11 15:01:46;;;;;;;3.33;1.67;;;;;;;;;;5282274;28;20536;-70
2022/04/11 15:04:18;;;;;;;6.22;2.15;;;;;;;;;;5283027;28;20039;-70
2022/04/11 15:06:49;;;;;;;5.75;1.80;;;;;;;;;;5282104;28;20281;-69
2022/04/11 15:09:20;;;;;;;5.45;1.75;;;;;;;;;;5282419;28;20036;-70
2022/04/11 15:11:51;;;;;;;5.32;1.85;;;;;;;;;;5282007;28;20325;-69